Edgar B Speer — WQZ9670 — position and weather

sailwx.info

Track history (hours):
 
Tides and Currents Weather Stations Pressure Air Temp Water Temp Dewpoint Dewpoint Depression Visibility Wind Speed Wind Dir Waves Ship Positions

Edgar B Speer

Owner: Great Lakes Fleet, Inc, DULUTH, MN. More information available from US FCC via Universal Licensing System and Coast Guard Vessel Documentation Center.

Last reported at 2015-Mar-24 21:06 UTC. Time now 2015-Mar-28 17:51 UTC.
Position N 45°26' W 086°39'.

Length 306 m; draft 7.3 m.

Type: Cargo ship. MMSI: 366971330.

Date/timePositionNaut miles runAvg speedWind from/ knotsBaromVisibWave heightAir tempDewpointWater temp
2015-Mar-24 21:06N 45°26' W 086°39'5 8.6
2015-Mar-24 20:30N 45°30' W 086°35'9 8.6
2015-Mar-24 19:29N 45°37' W 086°27'8 8.6
2015-Mar-24 18:31N 45°43' W 086°20'1 1.1
2015-Mar-24 17:33N 45°44' W 086°19'1 0.6
2015-Mar-24 16:33N 45°44' W 086°19'1 0.6
2015-Mar-24 15:33N 45°43' W 086°20'0 0.4
2015-Mar-24 14:33N 45°43' W 086°20'0 0.3
2015-Mar-24 13:33N 45°43' W 086°20'4 4.1
2015-Mar-24 12:33N 45°46' W 086°17'7 6.9
2015-Mar-24 11:33N 45°41' W 086°23'7 7.3
2015-Mar-24 10:33N 45°35' W 086°29'7 6.9
2015-Mar-24 09:30N 45°29' W 086°36'7 6.9
2015-Mar-24 08:25N 45°23' W 086°41'  
Track history (hours):
 
Tides and Currents Weather Stations Pressure Air Temp Water Temp Dewpoint Dewpoint Depression Visibility Wind Speed Wind Dir Waves Ship Positions

Edgar B Speer

Owner: Great Lakes Fleet, Inc, DULUTH, MN. More information available from US FCC via Universal Licensing System and Coast Guard Vessel Documentation Center.

Last reported at 2015-Mar-24 21:06 UTC. Time now 2015-Mar-28 17:51 UTC.
Position N 45°26' W 086°39'.

Length 306 m; draft 7.3 m.

Type: Cargo ship. MMSI: 366971330.

Date/timePositionNaut miles runAvg speedWind from/ knotsBaromVisibWave heightAir tempDewpointWater temp
2015-Mar-24 21:06N 45°26' W 086°39'5 8.6
2015-Mar-24 20:30N 45°30' W 086°35'9 8.6
2015-Mar-24 19:29N 45°37' W 086°27'8 8.6
2015-Mar-24 18:31N 45°43' W 086°20'1 1.1
2015-Mar-24 17:33N 45°44' W 086°19'1 0.6
2015-Mar-24 16:33N 45°44' W 086°19'1 0.6
2015-Mar-24 15:33N 45°43' W 086°20'0 0.4
2015-Mar-24 14:33N 45°43' W 086°20'0 0.3
2015-Mar-24 13:33N 45°43' W 086°20'4 4.1
2015-Mar-24 12:33N 45°46' W 086°17'7 6.9
2015-Mar-24 11:33N 45°41' W 086°23'7 7.3
2015-Mar-24 10:33N 45°35' W 086°29'7 6.9
2015-Mar-24 09:30N 45°29' W 086°36'7 6.9
2015-Mar-24 08:25N 45°23' W 086°41'  

Dump ship's entire track history